createdAt,value
2016-08-03T00:02:22.079Z,"    0"
2016-08-03T00:07:22.593Z,"    0"
2016-08-03T00:12:22.006Z,"    0"
2016-08-03T00:17:21.688Z,"    0"
2016-08-03T00:22:21.319Z,"    0"
2016-08-03T00:27:20.911Z,"    0"
2016-08-03T00:32:20.488Z,"    0"
2016-08-03T00:37:20.130Z,"    0"
2016-08-03T00:42:19.722Z,"    0"
2016-08-03T00:47:19.658Z,"    0"
2016-08-03T00:52:19.330Z,"    0"
2016-08-03T00:57:19.016Z,"    0"
2016-08-03T01:02:18.601Z,"    0"
2016-08-03T01:07:18.414Z,"    0"
2016-08-03T01:12:18.116Z,"    0"
2016-08-03T01:17:18.539Z,"    0"
2016-08-03T01:22:18.128Z,"    0"
2016-08-03T01:27:17.735Z,"    0"
2016-08-03T01:32:17.405Z,"    0"
2016-08-03T01:37:17.126Z,"    0"
2016-08-03T01:42:16.818Z,"    0"
2016-08-03T01:47:16.595Z,"    0"
2016-08-03T01:52:16.203Z,"    0"
2016-08-03T01:57:15.917Z,"    0"
2016-08-03T02:02:15.466Z,"    0"
2016-08-03T02:07:15.091Z,"    0"
2016-08-03T02:12:14.831Z,"    0"
2016-08-03T02:17:14.440Z,"    0"
2016-08-03T02:22:14.160Z,"    0"
2016-08-03T02:27:13.830Z,"    0"
2016-08-03T02:32:13.402Z,"    0"
2016-08-03T02:37:13.358Z,"    0"
2016-08-03T02:42:12.962Z,"    0"
2016-08-03T02:47:12.671Z,"    0"
2016-08-03T02:52:12.347Z,"    0"
2016-08-03T02:57:12.110Z,"    0"
2016-08-03T03:02:11.845Z,"    0"
2016-08-03T03:07:11.434Z,"    0"
2016-08-03T03:12:11.393Z,"    0"
2016-08-03T03:17:10.900Z,"    0"
2016-08-03T03:22:10.809Z,"    0"
2016-08-03T03:27:10.436Z,"    0"
2016-08-03T03:32:10.091Z,"    0"
2016-08-03T03:37:09.664Z,"    0"
2016-08-03T03:42:09.503Z,"    0"
2016-08-03T03:47:09.081Z,"    0"
2016-08-03T03:52:08.681Z,"    0"
2016-08-03T03:57:08.402Z,"    0"
2016-08-03T04:02:08.148Z,"    0"
2016-08-03T04:07:07.859Z,"    4"
2016-08-03T04:12:07.460Z,"    4"
2016-08-03T04:17:06.968Z,"    4"
2016-08-03T04:22:06.680Z,"    4"
2016-08-03T04:27:06.405Z,"    4"
2016-08-03T04:32:06.017Z,"    4"
2016-08-03T04:37:05.645Z,"    4"
2016-08-03T04:42:05.140Z,"    4"
2016-08-03T04:47:05.035Z,"    4"
2016-08-03T04:52:05.634Z,"    8"
2016-08-03T04:57:05.143Z,"    8"
2016-08-03T05:02:04.891Z,"   12"
2016-08-03T05:07:04.561Z,"   12"
2016-08-03T05:12:04.321Z,"   16"
2016-08-03T05:17:03.860Z,"   12"
2016-08-03T05:22:03.637Z,"   12"
2016-08-03T05:27:03.376Z,"   20"
2016-08-03T05:32:02.923Z,"   16"
2016-08-03T05:37:02.596Z,"   16"
2016-08-03T05:42:02.349Z,"   24"
2016-08-03T05:47:02.017Z,"   20"
2016-08-03T05:52:01.625Z,"   28"
2016-08-03T05:57:01.147Z,"   32"
2016-08-03T06:02:00.972Z,"   32"
2016-08-03T06:07:00.589Z,"   32"
2016-08-03T06:12:00.243Z,"   24"
2016-08-03T06:17:00.053Z,"   28"
2016-08-03T06:21:59.755Z,"   52"
2016-08-03T06:26:59.513Z,"   68"
2016-08-03T06:31:59.152Z,"   60"
2016-08-03T06:36:58.904Z,"   36"
2016-08-03T06:41:58.503Z,"   36"
2016-08-03T06:46:58.111Z,"   36"
2016-08-03T06:51:57.670Z,"   48"
2016-08-03T06:56:57.424Z,"   52"
2016-08-03T07:01:57.118Z,"   60"
2016-08-03T07:06:56.978Z,"   56"
2016-08-03T07:11:56.738Z,"   64"
2016-08-03T07:16:56.385Z,"   56"
2016-08-03T07:21:56.033Z,"   40"
2016-08-03T07:26:55.751Z,"   44"
2016-08-03T07:31:55.429Z,"   72"
2016-08-03T07:36:55.121Z,"   68"
2016-08-03T07:41:54.804Z,"  112"
2016-08-03T07:46:54.498Z,"   72"
2016-08-03T07:51:54.152Z,"  132"
2016-08-03T07:56:53.753Z,"   92"
2016-08-03T08:01:53.565Z,"   76"
2016-08-03T08:06:53.118Z,"   80"
2016-08-03T08:11:52.813Z,"  100"
2016-08-03T08:16:52.430Z,"  132"
2016-08-03T08:21:52.288Z,"  116"
2016-08-03T08:26:51.806Z,"  124"
2016-08-03T08:31:51.581Z,"  112"
2016-08-03T08:36:51.156Z,"  100"
2016-08-03T08:41:50.629Z,"   68"
2016-08-03T08:46:50.462Z,"   92"
2016-08-03T08:51:50.276Z,"   76"
2016-08-03T08:56:50.052Z,"   96"
2016-08-03T09:01:49.730Z,"   72"
2016-08-03T09:06:49.326Z,"   72"
2016-08-03T09:11:48.992Z,"   80"
2016-08-03T09:16:48.682Z,"   72"
2016-08-03T09:21:48.447Z,"  120"
2016-08-03T09:26:48.026Z,"   88"
2016-08-03T09:31:47.614Z,"   64"
2016-08-03T09:36:47.282Z,"   76"
2016-08-03T09:41:49.272Z,"   88"
2016-08-03T09:46:48.564Z,"   92"
2016-08-03T09:51:48.349Z,"   92"
2016-08-03T09:56:48.154Z,"   76"
2016-08-03T10:01:47.677Z,"   60"
2016-08-03T10:06:47.398Z,"  100"
2016-08-03T10:11:46.953Z,"   92"
2016-08-03T10:16:46.796Z,"  108"
2016-08-03T10:21:47.856Z,"  160"
2016-08-03T10:26:47.256Z,"  168"
2016-08-03T10:31:46.857Z,"  124"
2016-08-03T10:36:46.677Z,"  156"
2016-08-03T10:41:46.106Z,"  172"
2016-08-03T10:46:45.862Z,"  192"
2016-08-03T10:51:45.573Z,"  200"
2016-08-03T10:56:45.126Z,"  244"
2016-08-03T11:01:44.730Z,"  164"
2016-08-03T11:06:44.499Z,"  116"
2016-08-03T11:11:44.139Z,"   80"
2016-08-03T11:16:43.749Z,"   80"
2016-08-03T11:21:43.422Z,"  136"
2016-08-03T11:26:43.050Z,"  112"
2016-08-03T11:31:42.728Z,"   84"
2016-08-03T11:36:42.378Z,"   84"
2016-08-03T11:41:41.986Z,"   96"
2016-08-03T11:46:41.727Z,"   92"
2016-08-03T11:51:41.419Z,"   92"
2016-08-03T11:56:41.036Z,"   68"
2016-08-03T12:01:40.771Z,"   48"
2016-08-03T12:06:40.411Z,"   64"
2016-08-03T12:11:40.222Z,"   84"
2016-08-03T12:16:40.015Z,"   88"
2016-08-03T12:21:40.655Z,"   48"
2016-08-03T12:26:40.289Z,"   60"
2016-08-03T12:31:40.214Z,"   60"
2016-08-03T12:36:39.915Z,"   68"
2016-08-03T12:41:39.669Z,"   24"
2016-08-03T12:46:39.490Z,"   24"
2016-08-03T12:51:39.171Z,"   72"
2016-08-03T12:56:38.907Z,"   60"
2016-08-03T13:06:37.807Z,"   96"
2016-08-03T13:11:37.490Z,"   64"
2016-08-03T13:21:36.377Z,"   76"
2016-08-03T13:26:36.178Z,"   68"
2016-08-03T13:36:34.804Z,"  132"
2016-08-03T13:41:34.572Z,"  120"
2016-08-03T13:46:34.169Z,"  108"
2016-08-03T13:51:33.805Z,"  164"
2016-08-03T13:56:33.535Z,"  120"
2016-08-03T14:01:33.510Z,"  156"
2016-08-03T14:06:33.387Z,"  136"
2016-08-03T14:11:33.046Z,"  124"
2016-08-03T14:16:32.908Z,"  132"
2016-08-03T14:21:32.650Z,"   76"
2016-08-03T14:26:32.531Z,"   84"
2016-08-03T14:31:34.587Z,"  132"
2016-08-03T14:36:33.862Z,"   80"
2016-08-03T14:41:33.616Z,"  100"
2016-08-03T14:46:33.277Z,"  112"
2016-08-03T14:51:32.969Z,"   84"
2016-08-03T14:56:32.725Z,"  144"
2016-08-03T15:01:32.450Z,"   60"
2016-08-03T15:06:32.165Z,"   68"
2016-08-03T15:11:31.932Z,"   40"
2016-08-03T15:16:31.549Z,"   28"
2016-08-03T15:21:31.187Z,"   36"
2016-08-03T15:26:30.904Z,"   40"
2016-08-03T15:31:30.794Z,"   40"
2016-08-03T15:36:30.371Z,"   44"
2016-08-03T15:41:30.121Z,"   60"
2016-08-03T15:46:30.641Z,"   48"
2016-08-03T15:51:30.218Z,"   68"
2016-08-03T15:56:30.056Z,"   44"
2016-08-03T16:01:29.606Z,"   32"
2016-08-03T16:06:29.346Z,"   32"
2016-08-03T16:11:29.098Z,"   24"
2016-08-03T16:16:28.927Z,"   20"
2016-08-03T16:21:28.622Z,"   40"
2016-08-03T16:26:28.641Z,"   32"
2016-08-03T16:31:28.349Z,"   68"
2016-08-03T16:36:28.001Z,"   28"
2016-08-03T16:41:27.790Z,"   60"
2016-08-03T16:46:27.556Z,"   60"
2016-08-03T16:51:27.264Z,"   36"
2016-08-03T16:56:27.166Z,"   36"
2016-08-03T17:01:27.197Z,"   32"
2016-08-03T17:06:26.857Z,"   24"
2016-08-03T17:11:26.616Z,"   20"
2016-08-03T17:16:26.422Z,"   16"
2016-08-03T17:21:26.061Z,"   16"
2016-08-03T17:26:25.917Z,"   28"
2016-08-03T17:31:25.602Z,"   32"
2016-08-03T17:36:26.418Z,"   24"
2016-08-03T17:41:25.989Z,"   24"
2016-08-03T17:46:25.489Z,"   16"
2016-08-03T17:51:25.272Z,"   12"
2016-08-03T17:56:24.853Z,"   12"
2016-08-03T18:01:24.611Z,"    8"
2016-08-03T18:06:24.307Z,"    4"
2016-08-03T18:11:23.919Z,"    4"
2016-08-03T18:16:23.585Z,"   12"
2016-08-03T18:21:23.261Z,"    4"
2016-08-03T18:26:22.874Z,"    4"
2016-08-03T18:31:22.645Z,"    8"
2016-08-03T18:36:22.548Z,"    4"
2016-08-03T18:41:22.223Z,"    8"
2016-08-03T18:46:21.921Z,"    4"
2016-08-03T18:51:21.600Z,"    4"
2016-08-03T18:56:21.308Z,"    4"
2016-08-03T19:01:21.037Z,"    4"
2016-08-03T19:06:20.905Z,"    4"
2016-08-03T19:11:20.461Z,"    4"
2016-08-03T19:16:20.155Z,"    0"
2016-08-03T19:21:19.869Z,"    0"
2016-08-03T19:26:19.653Z,"    0"
2016-08-03T19:31:19.384Z,"    0"
2016-08-03T19:36:19.122Z,"    0"
2016-08-03T19:41:18.895Z,"    0"
2016-08-03T19:46:18.689Z,"    0"
2016-08-03T19:51:18.338Z,"    0"
2016-08-03T19:56:18.199Z,"    0"
2016-08-03T20:01:18.233Z,"    0"
2016-08-03T20:06:18.060Z,"    0"
2016-08-03T20:11:17.601Z,"    0"
2016-08-03T20:16:17.178Z,"    0"
2016-08-03T20:21:16.836Z,"    0"
2016-08-03T20:26:16.575Z,"    0"
2016-08-03T20:31:16.195Z,"    0"
2016-08-03T20:36:15.830Z,"    0"
2016-08-03T20:41:15.548Z,"    0"
2016-08-03T20:46:15.178Z,"    0"
2016-08-03T20:51:15.078Z,"    0"
2016-08-03T20:56:15.111Z,"    0"
2016-08-03T21:01:14.638Z,"    0"
2016-08-03T21:06:14.431Z,"    0"
2016-08-03T21:11:14.143Z,"    0"
2016-08-03T21:16:13.901Z,"    0"
2016-08-03T21:21:13.467Z,"    0"
2016-08-03T21:26:13.278Z,"    0"
2016-08-03T21:31:13.180Z,"    0"
2016-08-03T21:36:13.481Z,"    0"
2016-08-03T21:41:13.021Z,"    0"
2016-08-03T21:46:12.685Z,"    0"
2016-08-03T21:51:12.442Z,"    0"
2016-08-03T21:56:12.091Z,"    0"
2016-08-03T22:01:12.012Z,"    0"
2016-08-03T22:06:11.790Z,"    0"
2016-08-03T22:11:11.818Z,"    0"
2016-08-03T22:16:11.537Z,"    0"
2016-08-03T22:21:11.315Z,"    0"
2016-08-03T22:26:10.833Z,"    0"
2016-08-03T22:31:10.583Z,"    0"
2016-08-03T22:36:10.407Z,"    0"
2016-08-03T22:41:10.226Z,"    0"
2016-08-03T22:46:10.177Z,"    0"
2016-08-03T22:51:09.815Z,"    0"
2016-08-03T22:56:09.451Z,"    0"
2016-08-03T23:01:09.145Z,"    0"
2016-08-03T23:06:09.895Z,"    0"
2016-08-03T23:11:09.448Z,"    0"
2016-08-03T23:16:09.120Z,"    0"
2016-08-03T23:21:09.216Z,"    0"
2016-08-03T23:26:08.971Z,"    0"
2016-08-03T23:31:08.480Z,"    0"
2016-08-03T23:36:08.455Z,"    0"
2016-08-03T23:41:07.939Z,"    0"
2016-08-03T23:46:07.900Z,"    0"
2016-08-03T23:51:07.705Z,"    0"
2016-08-03T23:56:07.319Z,"    0"
